Time;durP1;ratioP1;P1;durP2;ratioP2;P2;SDS_P1;SDS_P2;PMS_P1;PMS_P2;Temp;Humidity;BMP_temperature;BMP_pressure;BME280_temperature;BME280_humidity;BME280_pressure;Samples;Min_cycle;Max_cycle;Signal;HPM_P1;HPM_P2
2023/04/24 00:00:14;;;;;;;1.48;0.90;;;;;;;6.44;100.00;98912.22;7394764;19;20015;-58
2023/04/24 00:02:46;;;;;;;0.38;0.38;;;;;;;6.83;100.00;98905.50;7397963;19;20242;-58
2023/04/24 00:05:15;;;;;;;0.60;0.60;;;;;;;6.28;100.00;98909.88;7394990;19;20015;-58
2023/04/24 00:07:42;;;;;;;3.35;1.45;;;;;;;6.76;100.00;98909.41;7396238;19;20018;-58
2023/04/24 00:10:09;;;;;;;1.00;0.95;;;;;;;6.91;100.00;98909.44;7393684;19;20018;-58
2023/04/24 00:12:35;;;;;;;4.35;0.95;;;;;;;6.66;100.00;98918.25;7396955;19;20034;-58
2023/04/24 00:15:02;;;;;;;4.07;2.05;;;;;;;6.24;100.00;98923.13;7394520;19;20007;-58
2023/04/24 00:17:28;;;;;;;5.93;1.70;;;;;;;6.18;100.00;98927.72;7394914;19;20011;-58
2023/04/24 00:20:01;;;;;;;1.55;0.88;;;;;;;6.11;100.00;98926.84;7396379;19;20014;-58
2023/04/24 00:22:28;;;;;;;7.28;1.30;;;;;;;7.74;100.00;98918.47;7396889;19;20013;-58
2023/04/24 00:24:54;;;;;;;1.15;1.05;;;;;;;6.97;100.00;98913.09;7393044;19;20066;-59
2023/04/24 00:27:20;;;;;;;0.85;0.85;;;;;;;7.00;100.00;98914.91;7394127;19;20025;-58
2023/04/24 00:29:47;;;;;;;0.60;0.47;;;;;;;7.17;100.00;98912.47;7391735;19;20018;-58
2023/04/24 00:32:14;;;;;;;4.00;1.83;;;;;;;7.17;100.00;98918.00;7395314;19;20029;-58
2023/04/24 00:34:40;;;;;;;4.28;0.95;;;;;;;7.38;100.00;98917.66;7392978;19;20010;-58
2023/04/24 00:37:07;;;;;;;1.75;1.02;;;;;;;8.14;100.00;98911.06;7392504;19;20014;-58
2023/04/24 00:39:33;;;;;;;2.60;1.50;;;;;;;6.75;100.00;98912.66;7392205;19;20031;-58
2023/04/24 00:42:01;;;;;;;1.42;0.98;;;;;;;6.54;100.00;98920.00;7396108;19;20025;-58
2023/04/24 00:44:27;;;;;;;0.57;0.52;;;;;;;6.06;100.00;98926.72;7392089;19;20011;-58
2023/04/24 00:46:54;;;;;;;0.80;0.80;;;;;;;6.27;100.00;98934.00;7392391;19;20417;-58
2023/04/24 00:49:22;;;;;;;2.60;1.30;;;;;;;6.07;100.00;98937.31;7394203;19;20007;-58
2023/04/24 00:51:49;;;;;;;1.38;1.17;;;;;;;5.90;100.00;98941.69;7393926;19;20372;-59
2023/04/24 00:54:15;;;;;;;8.27;1.42;;;;;;;8.76;100.00;98935.66;7390972;19;20021;-59
2023/04/24 00:56:43;;;;;;;1.63;1.48;;;;;;;6.51;100.00;98934.00;7396009;19;20366;-59
2023/04/24 00:59:11;;;;;;;2.90;1.27;;;;;;;6.32;100.00;98944.41;7393258;19;20011;-59
2023/04/24 01:01:41;;;;;;;0.57;0.57;;;;;;;6.07;100.00;98945.59;7393198;19;20025;-59
2023/04/24 01:04:10;;;;;;;2.85;1.10;;;;;;;5.96;100.00;98950.88;7389700;19;20015;-59
2023/04/24 01:06:39;;;;;;;1.08;0.80;;;;;;;5.79;100.00;98952.44;7393274;19;20019;-59
2023/04/24 01:09:05;;;;;;;0.95;0.90;;;;;;;5.54;100.00;98963.06;7392549;19;20015;-58
2023/04/24 01:11:31;;;;;;;2.60;1.20;;;;;;;5.42;100.00;98959.25;7392377;19;20023;-59
2023/04/24 01:13:58;;;;;;;2.58;0.55;;;;;;;5.69;100.00;98966.72;7392598;19;20009;-59
2023/04/24 01:16:25;;;;;;;0.77;0.77;;;;;;;5.43;100.00;98969.09;7391502;19;20464;-58
2023/04/24 01:18:53;;;;;;;0.60;0.60;;;;;;;5.22;100.00;98970.78;7392718;19;20130;-59
2023/04/24 01:21:21;;;;;;;1.35;0.63;;;;;;;5.56;100.00;98977.97;7392458;19;20010;-59
2023/04/24 01:23:47;;;;;;;4.07;1.30;;;;;;;5.17;100.00;98978.91;7392014;19;20007;-59
2023/04/24 01:26:16;;;;;;;12.18;1.15;;;;;;;5.49;100.00;98978.28;7393221;19;20404;-60
2023/04/24 01:28:42;;;;;;;0.60;0.45;;;;;;;5.56;100.00;98983.47;7390175;19;20010;-59
2023/04/24 01:31:08;;;;;;;3.33;2.40;;;;;;;5.18;100.00;98994.22;7391695;19;20357;-59
2023/04/24 01:33:35;;;;;;;2.15;1.08;;;;;;;5.42;100.00;98994.38;7393120;19;20019;-59
2023/04/24 01:36:01;;;;;;;9.85;1.30;;;;;;;8.74;100.00;98990.13;7390278;19;20019;-59
2023/04/24 01:38:27;;;;;;;1.20;1.20;;;;;;;5.97;100.00;98996.63;7390988;19;20019;-59
2023/04/24 01:40:53;;;;;;;0.63;0.60;;;;;;;5.81;100.00;99001.69;7394263;19;20018;-59
2023/04/24 01:43:21;;;;;;;1.48;0.65;;;;;;;5.53;100.00;99000.97;7404322;19;20010;-59
2023/04/24 01:45:47;;;;;;;3.78;1.88;;;;;;;5.34;100.00;99005.75;7398400;19;20022;-59
2023/04/24 01:48:14;;;;;;;7.13;1.20;;;;;;;5.30;100.00;99010.66;7398342;19;20014;-59
2023/04/24 01:50:40;;;;;;;0.55;0.55;;;;;;;5.22;100.00;99014.16;7398281;19;20007;-59
2023/04/24 01:53:06;;;;;;;3.70;0.70;;;;;;;5.40;100.00;99014.16;7402727;19;20015;-60
2023/04/24 01:55:33;;;;;;;0.95;0.80;;;;;;;5.20;100.00;99011.09;7398163;19;20018;-59
2023/04/24 01:57:59;;;;;;;1.92;0.82;;;;;;;4.95;100.00;99014.16;7399768;19;20010;-59
2023/04/24 02:00:26;;;;;;;1.73;1.05;;;;;;;18.66;100.00;98975.41;7397005;19;20014;-59
2023/04/24 02:02:53;;;;;;;1.42;1.00;;;;;;;22.95;68.06;98966.41;7400840;19;20015;-59
2023/04/24 02:05:19;;;;;;;0.60;0.60;;;;;;;7.91;100.00;98992.34;7398839;19;20049;-59
2023/04/24 02:07:45;;;;;;;0.77;0.77;;;;;;;8.65;100.00;98982.69;7398310;19;20011;-59
2023/04/24 02:10:12;;;;;;;0.30;0.30;;;;;;;8.67;100.00;98985.75;7398394;19;20031;-60
2023/04/24 02:12:42;;;;;;;0.50;0.50;;;;;;;8.70;100.00;98984.03;7401593;19;20011;-59
2023/04/24 02:15:08;;;;;;;0.85;0.85;;;;;;;5.79;100.00;98995.84;7396508;19;20032;-59
2023/04/24 02:17:37;;;;;;;4.75;0.95;;;;;;;5.72;100.00;99002.47;7397144;19;20010;-59
2023/04/24 02:20:06;;;;;;;0.52;0.52;;;;;;;4.58;100.00;99013.31;7399123;19;20007;-59
2023/04/24 02:22:32;;;;;;;0.38;0.38;;;;;;;4.43;100.00;99026.13;7401721;19;20010;-60
2023/04/24 02:25:01;;;;;;;2.65;0.82;;;;;;;4.25;100.00;99026.03;7399506;19;20471;-60
2023/04/24 02:27:28;;;;;;;1.65;0.73;;;;;;;4.29;100.00;99021.94;7395654;19;20348;-60
2023/04/24 02:29:55;;;;;;;1.65;0.50;;;;;;;4.12;100.00;99028.91;7397829;19;20042;-59
2023/04/24 02:32:21;;;;;;;0.70;0.55;;;;;;;4.07;100.00;99026.72;7397222;19;20070;-60
2023/04/24 02:34:47;;;;;;;1.80;0.75;;;;;;;4.45;100.00;99026.44;7397105;19;20019;-60
2023/04/24 02:37:13;;;;;;;0.52;0.47;;;;;;;4.33;100.00;99027.31;7394115;19;20476;-59
2023/04/24 02:39:39;;;;;;;0.70;0.70;;;;;;;4.09;100.00;99035.31;7398137;19;20018;-60
2023/04/24 02:42:07;;;;;;;0.50;0.50;;;;;;;4.39;100.00;99037.31;7397347;19;20006;-60
2023/04/24 02:44:35;;;;;;;0.35;0.35;;;;;;;4.02;100.00;99043.84;7397721;19;20017;-60
2023/04/24 02:47:01;;;;;;;0.98;0.47;;;;;;;4.08;100.00;99039.28;7398581;19;20039;-60
2023/04/24 02:49:27;;;;;;;4.72;1.38;;;;;;;4.54;100.00;99043.78;7395900;19;20015;-60
2023/04/24 02:51:54;;;;;;;0.90;0.90;;;;;;;4.78;100.00;99044.00;7396147;19;20022;-59
2023/04/24 02:54:20;;;;;;;0.80;0.80;;;;;;;9.39;100.00;99022.00;7395420;19;20011;-60
2023/04/24 02:56:46;;;;;;;0.30;0.30;;;;;;;11.76;100.00;99022.97;7398472;19;20014;-60
2023/04/24 02:59:12;;;;;;;12.65;0.88;;;;;;;12.42;100.00;99033.47;7395510;19;20455;-60
2023/04/24 03:01:38;;;;;;;0.45;0.45;;;;;;;8.01;100.00;99034.63;7396876;19;20510;-60
2023/04/24 03:04:04;;;;;;;0.85;0.80;;;;;;;13.16;100.00;99025.25;7395568;19;20410;-60
2023/04/24 03:06:32;;;;;;;1.00;0.93;;;;;;;9.99;100.00;99033.00;7395410;19;20014;-60
2023/04/24 03:08:58;;;;;;;0.30;0.30;;;;;;;5.63;100.00;99038.38;7396592;19;20115;-60
2023/04/24 03:11:25;;;;;;;2.13;1.00;;;;;;;5.20;100.00;99050.50;7396048;19;20014;-59
2023/04/24 03:13:51;;;;;;;0.40;0.40;;;;;;;4.97;100.00;99053.09;7396094;19;20058;-59
2023/04/24 03:16:19;;;;;;;0.52;0.52;;;;;;;4.49;100.00;99060.13;7393983;19;20017;-60
2023/04/24 03:18:46;;;;;;;0.60;0.60;;;;;;;4.23;100.00;99064.31;7393593;19;20045;-59
2023/04/24 03:21:12;;;;;;;0.85;0.85;;;;;;;4.47;100.00;99066.13;7398975;19;20011;-60
2023/04/24 03:23:39;;;;;;;0.40;0.40;;;;;;;4.07;100.00;99067.31;7394588;19;20010;-60
2023/04/24 03:26:07;;;;;;;0.85;0.32;;;;;;;4.13;100.00;99079.25;7398171;19;20018;-60
2023/04/24 03:28:34;;;;;;;0.70;0.68;;;;;;;4.54;100.00;99082.38;7394503;19;20066;-60
2023/04/24 03:31:03;;;;;;;0.35;0.35;;;;;;;4.10;100.00;99080.94;7395282;19;20021;-60
2023/04/24 03:33:33;;;;;;;0.40;0.40;;;;;;;4.61;100.00;99079.31;7394708;19;20011;-59
2023/04/24 03:36:02;;;;;;;0.75;0.40;;;;;;;4.27;100.00;99073.97;7394368;19;20017;-60
2023/04/24 03:38:36;;;;;;;0.20;0.20;;;;;;;4.66;100.00;99091.00;7394891;19;20053;-60
2023/04/24 03:41:23;;;;;;;0.40;0.40;;;;;;;4.69;100.00;99081.81;7395873;19;20003;-60
2023/04/24 03:43:53;;;;;;;0.40;0.40;;;;;;;4.66;100.00;99080.72;7393663;19;20018;-60
2023/04/24 03:46:20;;;;;;;0.20;0.20;;;;;;;5.18;100.00;99088.06;7393654;19;20022;-60
2023/04/24 03:48:53;;;;;;;0.30;0.30;;;;;;;7.69;100.00;99074.34;7393067;19;20022;-60
2023/04/24 03:51:22;;;;;;;2.00;0.65;;;;;;;5.75;100.00;99073.38;7395385;19;20010;-59
2023/04/24 03:53:51;;;;;;;0.60;0.50;;;;;;;5.23;100.00;99068.16;7393426;19;20068;-60
2023/04/24 03:56:20;;;;;;;0.63;0.40;;;;;;;4.41;100.00;99073.44;7396140;19;20006;-60
2023/04/24 03:58:47;;;;;;;0.65;0.40;;;;;;;4.15;100.00;99083.13;7393865;19;20030;-60
2023/04/24 04:01:15;;;;;;;0.40;0.38;;;;;;;4.06;100.00;99080.28;7393252;19;20011;-60
2023/04/24 04:04:06;;;;;;;0.57;0.57;;;;;;;4.02;100.00;99084.41;7392420;19;20010;-60
2023/04/24 04:06:32;;;;;;;0.10;0.10;;;;;;;4.01;100.00;99099.38;7393474;19;20035;-59
2023/04/24 04:09:00;;;;;;;0.22;0.22;;;;;;;4.16;100.00;99103.91;7393112;19;20460;-59
2023/04/24 04:11:26;;;;;;;4.22;0.60;;;;;;;7.49;100.00;99111.00;7394041;19;20006;-59
2023/04/24 04:13:52;;;;;;;0.88;0.52;;;;;;;9.32;100.00;99094.66;7393322;19;20050;-60
2023/04/24 04:16:21;;;;;;;0.32;0.32;;;;;;;5.06;100.00;99088.97;7392278;19;20023;-59
2023/04/24 04:18:49;;;;;;;0.73;0.73;;;;;;;5.21;100.00;99100.97;7391868;19;20015;-59
2023/04/24 04:21:16;;;;;;;0.50;0.50;;;;;;;6.74;100.00;99102.00;7393008;19;20014;-59
2023/04/24 04:23:42;;;;;;;0.60;0.60;;;;;;;4.89;100.00;99104.25;7392453;19;20014;-60
2023/04/24 04:26:14;;;;;;;0.50;0.50;;;;;;;4.50;100.00;99114.81;7392923;19;20024;-60
2023/04/24 04:29:03;;;;;;;0.38;0.38;;;;;;;4.13;100.00;99118.63;7393287;19;20010;-60
2023/04/24 04:31:31;;;;;;;4.57;1.45;;;;;;;4.05;100.00;99122.09;7394495;19;20010;-60
2023/04/24 04:34:01;;;;;;;1.48;0.93;;;;;;;4.04;100.00;99124.06;7392459;19;20017;-60
2023/04/24 04:36:29;;;;;;;0.57;0.43;;;;;;;3.97;100.00;99116.03;7391304;19;20024;-60
2023/04/24 04:39:03;;;;;;;0.40;0.30;;;;;;;4.04;100.00;99126.03;7393038;19;20015;-59
2023/04/24 04:41:44;;;;;;;2.08;0.50;;;;;;;4.11;100.00;99131.28;7393582;19;20355;-60
2023/04/24 04:44:10;;;;;;;0.52;0.52;;;;;;;4.29;100.00;99137.69;7392120;19;20014;-60
2023/04/24 04:46:38;;;;;;;0.73;0.73;;;;;;;4.11;100.00;99131.28;7392606;19;20413;-59
2023/04/24 04:49:28;;;;;;;1.15;0.57;;;;;;;4.54;100.00;99143.03;7391456;19;20539;-60
2023/04/24 04:51:54;;;;;;;5.63;0.55;;;;;;;4.56;100.00;99145.34;7393266;19;20483;-60
2023/04/24 04:54:21;;;;;;;0.93;0.90;;;;;;;4.46;100.00;99141.00;7392013;19;20018;-60
2023/04/24 04:56:50;;;;;;;2.78;1.00;;;;;;;4.39;100.00;99147.56;7394092;19;20018;-60
2023/04/24 04:59:16;;;;;;;1.23;1.08;;;;;;;4.19;100.00;99149.88;7391643;19;20018;-60
2023/04/24 05:01:42;;;;;;;1.98;0.73;;;;;;;4.24;100.00;99152.06;7394357;19;20039;-60
2023/04/24 05:04:10;;;;;;;0.60;0.60;;;;;;;4.16;100.00;99161.03;7392461;19;20026;-60
2023/04/24 05:06:37;;;;;;;0.68;0.68;;;;;;;16.93;100.00;99123.25;7391771;19;20341;-60
2023/04/24 05:09:05;;;;;;;0.47;0.47;;;;;;;21.36;79.29;99120.38;7393274;19;20022;-60
2023/04/24 05:11:47;;;;;;;1.08;0.98;;;;;;;7.01;100.00;99148.97;7392456;19;20018;-60
2023/04/24 05:14:13;;;;;;;1.75;0.60;;;;;;;5.24;100.00;99149.75;7392866;19;20018;-59
2023/04/24 05:16:40;;;;;;;9.50;0.95;;;;;;;4.69;100.00;99164.53;7395840;19;20031;-59
2023/04/24 05:19:08;;;;;;;3.03;1.17;;;;;;;4.45;100.00;99156.00;7399314;19;20040;-59
2023/04/24 05:21:39;;;;;;;5.30;1.92;;;;;;;4.32;100.00;99150.56;7399497;19;20014;-59
2023/04/24 05:24:06;;;;;;;20.25;2.45;;;;;;;4.25;100.00;99164.59;7397723;19;20046;-59
2023/04/24 05:26:47;;;;;;;9.15;2.25;;;;;;;4.22;100.00;99156.47;7401373;19;20018;-59
2023/04/24 05:29:16;;;;;;;6.53;2.20;;;;;;;4.20;100.00;99164.44;7397707;19;20011;-60
2023/04/24 05:31:42;;;;;;;0.47;0.47;;;;;;;4.16;100.00;99167.28;7400738;19;20388;-60
2023/04/24 05:34:09;;;;;;;1.20;0.90;;;;;;;4.15;100.00;99165.78;7398516;19;20026;-60
2023/04/24 05:36:39;;;;;;;0.93;0.90;;;;;;;4.18;100.00;99184.16;7395738;19;20031;-59
2023/04/24 05:39:05;;;;;;;0.20;0.20;;;;;;;4.19;100.00;99171.13;7399186;19;20077;-59
2023/04/24 05:41:32;;;;;;;2.78;0.70;;;;;;;4.22;100.00;99175.75;7398445;19;20122;-59
2023/04/24 05:43:58;;;;;;;0.20;0.20;;;;;;;4.23;100.00;99178.06;7399899;19;20013;-60
2023/04/24 05:46:25;;;;;;;1.42;1.00;;;;;;;4.32;100.00;99183.66;7399494;19;20015;-59
2023/04/24 05:48:51;;;;;;;15.02;1.17;;;;;;;4.36;100.00;99184.28;7396981;19;20073;-59
2023/04/24 05:51:17;;;;;;;7.00;1.65;;;;;;;4.42;100.00;99185.22;7397803;19;20011;-59
2023/04/24 05:53:44;;;;;;;0.75;0.75;;;;;;;4.46;100.00;99185.84;7396777;19;20032;-59
2023/04/24 05:56:11;;;;;;;1.52;0.70;;;;;;;4.50;100.00;99189.25;7399091;19;20021;-59
2023/04/24 05:58:37;;;;;;;0.55;0.55;;;;;;;4.54;100.00;99197.41;7399163;19;20535;-59
2023/04/24 06:01:04;;;;;;;1.42;0.88;;;;;;;4.57;100.00;99197.25;7397091;19;20031;-59
2023/04/24 06:03:31;;;;;;;0.40;0.40;;;;;;;4.63;100.00;99204.97;7397442;19;20027;-59
2023/04/24 06:05:57;;;;;;;2.63;0.45;;;;;;;4.65;100.00;99194.25;7398701;19;20007;-59
2023/04/24 06:08:24;;;;;;;0.60;0.60;;;;;;;4.71;100.00;99204.25;7397460;19;20074;-59
2023/04/24 06:10:51;;;;;;;2.30;0.43;;;;;;;7.49;100.00;99178.22;7397777;19;20325;-59
2023/04/24 06:13:20;;;;;;;2.90;0.70;;;;;;;5.36;100.00;99195.75;7401647;19;20074;-59
2023/04/24 06:16:12;;;;;;;0.50;0.50;;;;;;;5.08;100.00;99199.66;7399482;19;20006;-59
2023/04/24 06:18:41;;;;;;;7.47;0.70;;;;;;;5.71;100.00;99210.88;7396710;19;20015;-59
2023/04/24 06:21:07;;;;;;;5.47;0.80;;;;;;;5.27;100.00;99204.78;7396909;19;20401;-59
2023/04/24 06:23:34;;;;;;;0.73;0.73;;;;;;;5.27;100.00;99215.06;7397297;19;20019;-60
2023/04/24 06:26:00;;;;;;;0.85;0.60;;;;;;;5.35;100.00;99213.53;7399407;19;20017;-60
2023/04/24 06:28:26;;;;;;;0.30;0.30;;;;;;;5.43;100.00;99211.28;7394193;19;20015;-60
2023/04/24 06:30:52;;;;;;;2.00;1.67;;;;;;;5.52;100.00;99217.59;7399061;19;20082;-60
2023/04/24 06:33:18;;;;;;;0.43;0.43;;;;;;;5.61;100.00;99211.31;7399883;19;20014;-60
2023/04/24 06:35:45;;;;;;;0.88;0.88;;;;;;;5.62;100.00;99216.38;7395244;19;20011;-60
2023/04/24 06:38:11;;;;;;;0.50;0.50;;;;;;;5.62;100.00;99210.09;7396732;19;20066;-59
2023/04/24 06:40:37;;;;;;;1.67;0.85;;;;;;;8.38;100.00;99207.78;7396762;19;20020;-59
2023/04/24 06:43:03;;;;;;;0.25;0.25;;;;;;;6.09;100.00;99200.19;7400357;19;20018;-59
2023/04/24 06:45:29;;;;;;;1.15;0.55;;;;;;;6.91;100.00;99200.03;7397216;19;20010;-59
2023/04/24 06:47:56;;;;;;;0.45;0.43;;;;;;;11.70;100.00;99183.22;7397028;19;20010;-59
2023/04/24 06:50:22;;;;;;;0.85;0.80;;;;;;;8.60;100.00;99185.97;7397952;19;20531;-59
2023/04/24 06:52:48;;;;;;;0.80;0.68;;;;;;;11.77;100.00;99183.50;7400366;19;20027;-59
2023/04/24 06:55:16;;;;;;;1.48;0.93;;;;;;;12.55;100.00;99183.75;7400300;19;20035;-59
2023/04/24 06:57:43;;;;;;;0.55;0.55;;;;;;;7.17;100.00;99201.16;7398256;19;20066;-59
2023/04/24 07:00:10;;;;;;;0.47;0.47;;;;;;;6.81;100.00;99206.84;7395369;19;20070;-60
2023/04/24 07:02:37;;;;;;;0.20;0.20;;;;;;;9.49;100.00;99209.59;7399622;19;20026;-59
2023/04/24 07:05:04;;;;;;;0.30;0.30;;;;;;;7.15;100.00;99208.41;7397372;19;20013;-59
2023/04/24 07:07:31;;;;;;;0.50;0.50;;;;;;;7.34;100.00;99213.38;7397028;19;20045;-59
2023/04/24 07:09:57;;;;;;;0.82;0.82;;;;;;;12.54;100.00;99204.59;7396240;19;20015;-59
2023/04/24 07:12:23;;;;;;;0.57;0.57;;;;;;;10.46;100.00;99207.06;7399081;19;20014;-59
2023/04/24 07:14:50;;;;;;;1.10;0.35;;;;;;;13.14;100.00;99206.72;7395969;19;20370;-59
2023/04/24 07:17:16;;;;;;;2.92;0.93;;;;;;;12.78;100.00;99207.66;7393982;19;20050;-59
2023/04/24 07:19:42;;;;;;;1.55;0.95;;;;;;;14.02;100.00;99200.16;7397297;19;20006;-58
2023/04/24 07:22:11;;;;;;;0.30;0.30;;;;;;;10.99;100.00;99209.31;7398912;19;20007;-59
2023/04/24 07:24:37;;;;;;;7.88;3.30;;;;;;;11.33;100.00;99197.16;7396256;19;20014;-58
2023/04/24 07:27:04;;;;;;;6.22;1.52;;;;;;;9.79;100.00;99205.47;7393871;19;20048;-59
2023/04/24 07:29:30;;;;;;;4.38;1.45;;;;;;;8.56;100.00;99218.69;7395069;19;20025;-59
2023/04/24 07:31:56;;;;;;;0.88;0.80;;;;;;;7.67;100.00;99224.44;7396933;19;20477;-59
2023/04/24 07:34:22;;;;;;;0.47;0.47;;;;;;;7.30;100.00;99221.09;7394787;19;20006;-59
2023/04/24 07:36:48;;;;;;;0.55;0.40;;;;;;;7.07;100.00;99221.81;7394549;19;20007;-58
2023/04/24 07:39:15;;;;;;;0.40;0.40;;;;;;;6.99;100.00;99223.41;7394960;19;20356;-58
2023/04/24 07:41:41;;;;;;;0.75;0.20;;;;;;;7.77;100.00;99219.63;7396693;19;20401;-58
2023/04/24 07:44:07;;;;;;;0.95;0.90;;;;;;;7.22;100.00;99225.47;7395240;19;20042;-58
2023/04/24 07:46:33;;;;;;;0.47;0.47;;;;;;;7.54;100.00;99230.22;7395200;19;20066;-58
2023/04/24 07:49:01;;;;;;;0.65;0.65;;;;;;;8.32;100.00;99227.09;7395585;19;20010;-58
2023/04/24 07:51:27;;;;;;;4.68;1.55;;;;;;;8.63;100.00;99226.66;7395680;19;20014;-58
2023/04/24 07:53:54;;;;;;;0.95;0.80;;;;;;;7.74;100.00;99234.41;7395700;19;20070;-59
2023/04/24 07:56:21;;;;;;;0.75;0.73;;;;;;;8.11;100.00;99232.94;7397205;19;20030;-59
2023/04/24 07:58:47;;;;;;;1.50;0.55;;;;;;;7.64;100.00;99236.50;7393494;19;20039;-59
2023/04/24 08:01:13;;;;;;;1.85;0.95;;;;;;;7.64;100.00;99245.53;7394225;19;20014;-59
2023/04/24 08:03:39;;;;;;;3.35;0.70;;;;;;;8.99;100.00;99245.69;7393993;19;20385;-59
2023/04/24 08:06:06;;;;;;;1.50;0.65;;;;;;;8.16;100.00;99257.25;7397866;19;20010;-59
2023/04/24 08:08:32;;;;;;;0.40;0.40;;;;;;;7.31;100.00;99249.56;7394734;19;20015;-59
2023/04/24 08:10:58;;;;;;;1.98;1.17;;;;;;;7.31;100.00;99253.13;7394282;19;20333;-59
2023/04/24 08:13:24;;;;;;;0.52;0.52;;;;;;;7.61;100.00;99257.59;7398643;19;20484;-59
2023/04/24 08:15:50;;;;;;;0.50;0.50;;;;;;;7.49;100.00;99255.78;7393842;19;20070;-58
2023/04/24 08:18:17;;;;;;;1.13;1.02;;;;;;;7.83;100.00;99249.00;7394625;19;20069;-59
2023/04/24 08:20:43;;;;;;;0.88;0.88;;;;;;;9.68;100.00;99247.78;7397191;19;20014;-59
2023/04/24 08:23:09;;;;;;;0.60;0.60;;;;;;;8.68;100.00;99250.97;7397898;19;20018;-58
2023/04/24 08:25:35;;;;;;;0.50;0.50;;;;;;;9.58;100.00;99240.06;7396070;19;20031;-59
2023/04/24 08:28:03;;;;;;;0.25;0.25;;;;;;;8.64;100.00;99253.16;7391474;19;20014;-59
2023/04/24 08:30:30;;;;;;;0.98;0.60;;;;;;;8.85;100.00;99246.47;7393602;19;20011;-59
2023/04/24 08:32:56;;;;;;;1.55;0.57;;;;;;;8.87;100.00;99244.00;7394128;19;20011;-59
2023/04/24 08:35:23;;;;;;;0.30;0.30;;;;;;;9.06;100.00;99239.78;7393751;19;20502;-59
2023/04/24 08:37:49;;;;;;;3.15;1.02;;;;;;;9.14;100.00;99251.25;7393318;19;20018;-59
2023/04/24 08:40:16;;;;;;;0.43;0.43;;;;;;;9.31;100.00;99243.19;7392144;19;20021;-59
2023/04/24 08:42:43;;;;;;;1.00;0.30;;;;;;;9.91;100.00;99246.84;7395685;19;20026;-59
2023/04/24 08:45:12;;;;;;;1.95;0.55;;;;;;;9.79;100.00;99250.72;7392442;19;20508;-59
2023/04/24 08:47:39;;;;;;;0.30;0.30;;;;;;;9.57;100.00;99249.66;7393013;19;20025;-59
2023/04/24 08:50:07;;;;;;;2.83;0.40;;;;;;;11.47;100.00;99245.66;7391064;19;20083;-59
2023/04/24 08:52:34;;;;;;;1.15;0.50;;;;;;;9.98;100.00;99248.47;7395816;19;20379;-59
2023/04/24 08:55:01;;;;;;;0.55;0.55;;;;;;;9.89;100.00;99245.81;7393771;19;20348;-59
2023/04/24 08:57:29;;;;;;;0.82;0.82;;;;;;;9.78;100.00;99254.00;7392152;19;20382;-59
2023/04/24 08:59:57;;;;;;;0.55;0.47;;;;;;;9.83;100.00;99261.66;7393545;19;20455;-60
2023/04/24 09:02:24;;;;;;;10.95;0.65;;;;;;;14.86;100.00;99248.13;7394927;19;20019;-60
2023/04/24 09:04:52;;;;;;;2.33;1.00;;;;;;;10.32;100.00;99258.00;7392010;19;20011;-60
2023/04/24 09:07:19;;;;;;;0.38;0.20;;;;;;;9.38;100.00;99267.78;7392833;19;20043;-60
2023/04/24 09:09:46;;;;;;;6.60;1.45;;;;;;;9.09;100.00;99255.50;7392684;19;20527;-60
2023/04/24 09:12:12;;;;;;;2.85;0.35;;;;;;;9.00;100.00;99258.34;7393603;19;20014;-60
2023/04/24 09:14:44;;;;;;;1.85;0.55;;;;;;;9.01;100.00;99264.66;7392841;19;20018;-60
2023/04/24 09:17:11;;;;;;;1.10;0.82;;;;;;;8.86;100.00;99270.22;7389975;19;20036;-60
2023/04/24 09:19:37;;;;;;;0.63;0.63;;;;;;;8.93;100.00;99272.63;7391550;19;20444;-60
2023/04/24 09:22:07;;;;;;;5.78;1.05;;;;;;;9.09;100.00;99266.59;7393394;19;20071;-61
2023/04/24 09:24:34;;;;;;;3.83;1.13;;;;;;;9.40;100.00;99257.72;7392607;19;20032;-60
2023/04/24 09:27:01;;;;;;;1.17;0.55;;;;;;;10.83;100.00;99268.44;7397942;19;20025;-60
2023/04/24 09:29:28;;;;;;;6.45;1.60;;;;;;;10.67;100.00;99267.00;7393091;19;20370;-60
2023/04/24 09:31:54;;;;;;;1.63;0.73;;;;;;;10.99;100.00;99270.59;7393421;19;20488;-60
2023/04/24 09:34:25;;;;;;;0.28;0.28;;;;;;;10.40;100.00;99271.00;7392238;19;20015;-61
2023/04/24 09:36:51;;;;;;;;;;;;;;;12.29;100.00;99278.13;7390737;19;20697;-60
2023/04/24 09:39:21;;;;;;;2.72;0.50;;;;;;;10.99;100.00;99276.19;7390183;19;19915;-61
2023/04/24 09:41:50;;;;;;;0.47;0.30;;;;;;;10.78;100.00;99264.34;7390763;19;20046;-61
2023/04/24 09:44:20;;;;;;;0.90;0.82;;;;;;;9.95;100.00;99274.44;7389773;19;20041;-61
2023/04/24 09:46:57;;;;;;;0.30;0.30;;;;;;;10.40;100.00;99273.78;7389952;19;20052;-60
2023/04/24 09:49:33;;;;;;;1.02;0.17;;;;;;;10.20;100.00;99279.34;7389879;19;20011;-60
2023/04/24 09:52:04;;;;;;;2.00;0.85;;;;;;;10.43;100.00;99283.97;7392086;19;20486;-60
2023/04/24 09:54:31;;;;;;;1.42;0.40;;;;;;;10.78;100.00;99285.84;7390043;19;20018;-61
2023/04/24 09:56:57;;;;;;;0.38;0.20;;;;;;;10.78;100.00;99280.28;7394141;19;20006;-61
2023/04/24 09:59:23;;;;;;;1.63;0.40;;;;;;;11.43;100.00;99282.16;7391173;19;20018;-61
2023/04/24 10:01:50;;;;;;;2.33;0.65;;;;;;;11.31;100.00;99280.50;7395568;19;20002;-60
2023/04/24 10:04:26;;;;;;;1.83;0.70;;;;;;;11.23;100.00;99274.63;7397853;19;20062;-60
2023/04/24 10:06:56;;;;;;;3.10;0.57;;;;;;;10.52;100.00;99283.81;7397511;19;20460;-61
2023/04/24 10:09:25;;;;;;;5.53;2.13;;;;;;;11.34;100.00;99279.53;7399202;19;20021;-61
2023/04/24 10:11:54;;;;;;;0.80;0.80;;;;;;;9.75;100.00;99282.75;7400283;19;20021;-61
2023/04/24 10:14:22;;;;;;;0.82;0.82;;;;;;;10.14;100.00;99286.88;7397806;19;20014;-61
2023/04/24 10:16:50;;;;;;;0.98;0.65;;;;;;;10.74;100.00;99288.88;7397224;19;20078;-61
2023/04/24 10:19:20;;;;;;;7.50;0.57;;;;;;;11.77;100.00;99283.94;7399257;19;20467;-61
2023/04/24 10:21:46;;;;;;;1.30;0.67;;;;;;;11.94;100.00;99275.66;7399673;19;20021;-61
2023/04/24 10:24:17;;;;;;;1.27;0.45;;;;;;;11.20;100.00;99283.19;7398594;19;20344;-60
2023/04/24 10:26:45;;;;;;;1.55;0.80;;;;;;;26.24;51.09;99250.56;7397714;19;20027;-60
2023/04/24 10:29:15;;;;;;;3.47;1.92;;;;;;;14.44;74.03;99269.75;7396571;19;20010;-61
2023/04/24 10:31:41;;;;;;;1.42;0.77;;;;;;;13.36;91.30;99284.25;7398577;19;20039;-60
2023/04/24 10:34:09;;;;;;;1.10;0.50;;;;;;;12.96;97.84;99279.84;7399369;19;20031;-60
2023/04/24 10:36:41;;;;;;;4.30;0.95;;;;;;;11.64;100.00;99289.16;7393526;19;20044;-60
2023/04/24 10:39:14;;;;;;;2.55;0.40;;;;;;;10.61;100.00;99280.84;7397360;19;20014;-60
2023/04/24 10:41:40;;;;;;;0.20;0.20;;;;;;;11.06;100.00;99293.25;7399280;19;20035;-60
2023/04/24 10:44:13;;;;;;;3.97;0.70;;;;;;;12.50;100.00;99285.06;7397972;19;20024;-60
2023/04/24 10:46:43;;;;;;;14.38;0.82;;;;;;;10.34;100.00;99292.44;7398162;19;20010;-60
2023/04/24 10:49:09;;;;;;;1.27;0.47;;;;;;;9.98;100.00;99290.19;7396589;19;20027;-60
2023/04/24 10:51:46;;;;;;;1.23;0.95;;;;;;;9.70;100.00;99286.97;7397568;19;20039;-60
2023/04/24 10:54:36;;;;;;;0.20;0.20;;;;;;;11.24;100.00;99290.09;7399380;19;20503;-60
2023/04/24 10:57:20;;;;;;;3.35;1.08;;;;;;;10.72;100.00;99296.16;7395434;19;20090;-60
2023/04/24 10:59:48;;;;;;;1.08;0.65;;;;;;;14.47;88.72;99290.38;7396694;19;20342;-60
2023/04/24 11:02:17;;;;;;;3.03;0.73;;;;;;;14.43;91.67;99295.50;7398866;19;20018;-60
2023/04/24 11:04:44;;;;;;;1.20;0.40;;;;;;;11.67;100.00;99295.78;7398012;19;20018;-60
2023/04/24 11:07:11;;;;;;;2.03;0.52;;;;;;;11.01;100.00;99290.38;7395546;19;20026;-61
2023/04/24 11:09:40;;;;;;;0.95;0.50;;;;;;;11.26;100.00;99295.19;7396975;19;20357;-61
2023/04/24 11:12:12;;;;;;;9.35;2.13;;;;;;;26.53;44.68;99271.31;7397652;19;20010;-60
2023/04/24 11:15:00;;;;;;;0.30;0.28;;;;;;;14.35;66.59;99289.69;7395934;19;20014;-61
2023/04/24 11:17:36;;;;;;;0.45;0.22;;;;;;;12.42;87.42;99300.78;7393904;19;20504;-60
2023/04/24 11:20:06;;;;;;;0.52;0.30;;;;;;;12.82;91.79;99301.16;7398279;19;20017;-60
2023/04/24 11:22:37;;;;;;;0.50;0.50;;;;;;;11.37;90.13;99307.19;7399264;19;20010;-60
2023/04/24 11:25:04;;;;;;;0.35;0.20;;;;;;;11.29;96.18;99308.13;7395232;19;20014;-60
2023/04/24 11:27:45;;;;;;;0.20;0.10;;;;;;;12.46;92.72;99299.25;7393567;19;20329;-60
2023/04/24 11:30:16;;;;;;;0.22;0.17;;;;;;;11.59;94.59;99306.59;7395218;19;20018;-61
2023/04/24 11:32:43;;;;;;;0.60;0.50;;;;;;;11.22;94.09;99322.50;7398702;19;20368;-61
2023/04/24 11:35:16;;;;;;;1.98;0.47;;;;;;;11.24;96.29;99317.22;7395611;19;20403;-61